Time;durP1;ratioP1;P1;durP2;ratioP2;P2;SDS_P1;SDS_P2;PMS_P1;PMS_P2;Temp;Humidity;BMP_temperature;BMP_pressure;BME280_temperature;BME280_humidity;BME280_pressure;Samples;Min_cycle;Max_cycle;Signal;HPM_P1;HPM_P2
2023/05/16 00:00:40;;;;;;;6.78;4.35;;;;;;;;;;10130336;29;20172;-84
2023/05/16 00:05:45;;;;;;;8.02;4.85;;;;;;;;;;10129916;29;20056;-84
2023/05/16 00:10:48;;;;;;;9.65;6.97;;;;;;;;;;10110457;29;20533;-84
2023/05/16 00:15:52;;;;;;;6.68;4.15;;;;;;;;;;10113177;29;20048;-84
2023/05/16 00:20:57;;;;;;;10.27;6.72;;;;;;;;;;10112852;29;20164;-84
2023/05/16 00:26:00;;;;;;;7.38;4.53;;;;;;;;;;10112999;29;20139;-84
2023/05/16 00:31:04;;;;;;;5.95;3.53;;;;;;;;;;10112083;29;20055;-84
2023/05/16 00:36:10;;;;;;;7.07;3.97;;;;;;;;;;10114152;29;20083;-84
2023/05/16 00:41:14;;;;;;;10.25;4.18;;;;;;;;;;10131268;29;20052;-84
2023/05/16 00:46:17;;;;;;;6.35;3.85;;;;;;;;;;10114347;29;20073;-84
2023/05/16 00:51:22;;;;;;;3.63;2.75;;;;;;;;;;10129702;29;20045;-84
2023/05/16 00:56:26;;;;;;;9.25;6.18;;;;;;;;;;10117968;29;20067;-84
2023/05/16 01:01:30;;;;;;;4.50;3.42;;;;;;;;;;10134094;29;20152;-83
2023/05/16 01:06:36;;;;;;;11.68;6.53;;;;;;;;;;10123056;29;20071;-84
2023/05/16 01:11:49;;;;;;;6.10;4.22;;;;;;;;;;10120145;29;20056;-83
2023/05/16 01:17:01;;;;;;;9.48;5.95;;;;;;;;;;10119469;29;20063;-84
2023/05/16 01:22:14;;;;;;;10.00;6.95;;;;;;;;;;10116812;29;20063;-84
2023/05/16 01:27:19;;;;;;;5.82;3.70;;;;;;;;;;10115188;29;20526;-84
2023/05/16 01:32:23;;;;;;;6.40;3.70;;;;;;;;;;10114815;29;20048;-84
2023/05/16 01:37:33;;;;;;;7.05;4.03;;;;;;;;;;10131566;29;20072;-84
2023/05/16 01:42:43;;;;;;;6.75;3.90;;;;;;;;;;10114539;29;20049;-83
2023/05/16 01:47:58;;;;;;;5.72;3.55;;;;;;;;;;10114319;29;20056;-84
2023/05/16 01:53:07;;;;;;;5.80;3.78;;;;;;;;;;10128757;29;20060;-83
2023/05/16 01:58:14;;;;;;;4.35;2.95;;;;;;;;;;10113476;29;20053;-84
2023/05/16 02:03:17;;;;;;;4.70;2.65;;;;;;;;;;10130522;29;20056;-84
2023/05/16 02:08:22;;;;;;;2.47;2.10;;;;;;;;;;10130119;29;20104;-84
2023/05/16 02:13:27;;;;;;;5.07;2.90;;;;;;;;;;10113157;29;20052;-84
2023/05/16 02:18:30;;;;;;;2.92;1.70;;;;;;;;;;10111698;29;20124;-84
2023/05/16 02:23:34;;;;;;;2.67;1.30;;;;;;;;;;10129979;29;20084;-84
2023/05/16 02:28:38;;;;;;;1.73;1.60;;;;;;;;;;10112452;29;20048;-84
2023/05/16 02:33:42;;;;;;;2.42;1.80;;;;;;;;;;10112398;29;20514;-84
2023/05/16 02:38:45;;;;;;;1.27;0.98;;;;;;;;;;10112186;29;20048;-84
2023/05/16 02:43:50;;;;;;;3.20;1.60;;;;;;;;;;10129436;29;20044;-83
2023/05/16 02:48:54;;;;;;;1.58;1.17;;;;;;;;;;10111795;29;20065;-84
2023/05/16 02:53:58;;;;;;;1.20;1.05;;;;;;;;;;10111324;29;20045;-84
2023/05/16 02:59:03;;;;;;;2.03;0.93;;;;;;;;;;10111598;29;20052;-84
2023/05/16 03:04:07;;;;;;;1.77;1.00;;;;;;;;;;10111572;29;20715;-84
2023/05/16 03:09:11;;;;;;;1.50;0.70;;;;;;;;;;10100043;29;20072;-84
2023/05/16 03:14:15;;;;;;;1.00;0.70;;;;;;;;;;10108577;29;20048;-83
2023/05/16 03:19:21;;;;;;;1.10;0.77;;;;;;;;;;10110369;29;20044;-84
2023/05/16 03:24:25;;;;;;;0.52;0.47;;;;;;;;;;10105638;29;20049;-84
2023/05/16 03:29:29;;;;;;;1.63;0.60;;;;;;;;;;10113529;29;20088;-83
2023/05/16 03:34:33;;;;;;;0.40;0.40;;;;;;;;;;10114142;29;20135;-84
2023/05/16 03:39:36;;;;;;;0.40;0.40;;;;;;;;;;10113839;29;20053;-84
2023/05/16 03:44:41;;;;;;;0.52;0.32;;;;;;;;;;10112487;29;20045;-84
2023/05/16 03:49:45;;;;;;;0.30;0.30;;;;;;;;;;10112474;29;20060;-83
2023/05/16 03:54:48;;;;;;;0.50;0.40;;;;;;;;;;10113389;29;20044;-84
2023/05/16 03:59:53;;;;;;;0.50;0.30;;;;;;;;;;10113268;29;20527;-84
2023/05/16 04:04:56;;;;;;;1.27;0.50;;;;;;;;;;10129802;29;20076;-84
2023/05/16 04:09:59;;;;;;;0.30;0.30;;;;;;;;;;10113900;29;20063;-85
2023/05/16 04:15:05;;;;;;;0.20;0.20;;;;;;;;;;10131314;29;20068;-85
2023/05/16 04:20:10;;;;;;;0.30;0.30;;;;;;;;;;10107273;29;20135;-85
2023/05/16 04:25:13;;;;;;;0.50;0.50;;;;;;;;;;10114221;29;20049;-85
2023/05/16 04:30:18;;;;;;;0.35;0.35;;;;;;;;;;10131627;29;20135;-86
2023/05/16 04:35:22;;;;;;;0.40;0.40;;;;;;;;;;10113917;29;20053;-85
2023/05/16 04:40:26;;;;;;;0.28;0.28;;;;;;;;;;10117653;29;20061;-86
2023/05/16 04:45:31;;;;;;;0.30;0.30;;;;;;;;;;10119921;29;20048;-85
2023/05/16 04:50:34;;;;;;;0.30;0.30;;;;;;;;;;10117516;29;20089;-84
2023/05/16 04:55:38;;;;;;;0.20;0.20;;;;;;;;;;10134463;29;20049;-85
2023/05/16 05:00:43;;;;;;;0.20;0.20;;;;;;;;;;10101844;29;20510;-86
2023/05/16 05:11:23;;;;;;;0.35;0.30;;;;;;;;;;10444929;23;20048;-86
2023/05/16 05:16:28;;;;;;;0.40;0.30;;;;;;;;;;10104761;29;20056;-86
2023/05/16 05:21:33;;;;;;;0.80;0.30;;;;;;;;;;10103025;29;20060;-85
2023/05/16 05:26:36;;;;;;;0.52;0.30;;;;;;;;;;10104285;29;20064;-85
2023/05/16 05:31:41;;;;;;;0.30;0.30;;;;;;;;;;10119317;29;20059;-84
2023/05/16 05:36:44;;;;;;;0.38;0.30;;;;;;;;;;10120885;29;20067;-86
2023/05/16 05:41:50;;;;;;;0.50;0.40;;;;;;;;;;10127628;29;20087;-86
2023/05/16 05:46:56;;;;;;;0.30;0.30;;;;;;;;;;10105232;29;20056;-85
2023/05/16 05:52:01;;;;;;;0.20;0.20;;;;;;;;;;10124914;29;20483;-92
2023/05/16 05:57:05;;;;;;;0.43;0.37;;;;;;;;;;10113543;29;20416;-93
2023/05/16 06:02:10;;;;;;;0.20;0.20;;;;;;;;;;10113737;29;20077;-89
2023/05/16 06:07:15;;;;;;;0.20;0.20;;;;;;;;;;10112991;29;20140;-90
2023/05/16 06:12:19;;;;;;;0.20;0.20;;;;;;;;;;10113623;29;20709;-89
2023/05/16 06:17:24;;;;;;;0.47;0.47;;;;;;;;;;10130759;29;20052;-90
2023/05/16 06:22:31;;;;;;;0.23;0.20;;;;;;;;;;10128649;29;20762;-95
2023/05/16 06:28:10;;;;;;;0.10;0.10;;;;;;;;;;10111746;29;20702;-89
2023/05/16 06:33:25;;;;;;;0.15;0.15;;;;;;;;;;10108215;29;20057;-90
2023/05/16 06:38:33;;;;;;;0.30;0.20;;;;;;;;;;10108035;29;20088;-91
2023/05/16 06:43:48;;;;;;;1.02;0.30;;;;;;;;;;10102614;29;20136;-90
2023/05/16 06:49:06;;;;;;;0.30;0.20;;;;;;;;;;10129200;29;20086;-89
2023/05/16 06:54:12;;;;;;;0.20;0.20;;;;;;;;;;10111270;29;20265;-90
2023/05/16 06:59:16;;;;;;;;;;;;;;;;;;10111272;29;20516;-93
2023/05/16 07:04:30;;;;;;;0.32;0.25;;;;;;;;;;10100892;29;19923;-91
2023/05/16 07:09:37;;;;;;;0.20;0.20;;;;;;;;;;10108177;29;20063;-90
2023/05/16 07:14:44;;;;;;;0.40;0.40;;;;;;;;;;10111501;29;20053;-90
2023/05/16 07:19:49;;;;;;;0.47;0.40;;;;;;;;;;10120651;29;20654;-88
2023/05/16 07:24:56;;;;;;;0.73;0.50;;;;;;;;;;10123527;29;20083;-91
2023/05/16 07:29:59;;;;;;;0.80;0.40;;;;;;;;;;10108890;29;20102;-92
2023/05/16 07:35:08;;;;;;;1.17;0.50;;;;;;;;;;10125925;29;20139;-92
2023/05/16 07:40:13;;;;;;;1.45;0.50;;;;;;;;;;10125785;29;20079;-90
2023/05/16 07:45:18;;;;;;;0.57;0.57;;;;;;;;;;10109511;29;20131;-90
2023/05/16 07:50:24;;;;;;;;;;;;;;;;;;10108758;29;20045;-90
2023/05/16 07:55:28;;;;;;;1.33;0.50;;;;;;;;;;10107574;29;19928;-91
2023/05/16 08:00:32;;;;;;;1.30;0.65;;;;;;;;;;10124574;29;20048;-90
2023/05/16 08:05:38;;;;;;;2.13;0.82;;;;;;;;;;10107346;29;20087;-94
2023/05/16 08:10:42;;;;;;;3.50;1.10;;;;;;;;;;10105529;29;20114;-90
2023/05/16 08:15:46;;;;;;;2.60;1.27;;;;;;;;;;10128649;29;20060;-93
2023/05/16 08:20:51;;;;;;;2.05;1.05;;;;;;;;;;10133717;29;20057;-89
2023/05/16 08:25:55;;;;;;;4.13;0.95;;;;;;;;;;10121411;29;20048;-91
2023/05/16 08:31:00;;;;;;;4.13;1.13;;;;;;;;;;10132128;29;20106;-92
2023/05/16 08:36:12;;;;;;;5.05;0.90;;;;;;;;;;10132886;29;20059;-95
2023/05/16 08:41:15;;;;;;;2.45;1.02;;;;;;;;;;10130071;29;20053;-88
2023/05/16 08:46:23;;;;;;;2.45;1.00;;;;;;;;;;10110416;29;20052;-87
2023/05/16 08:51:34;;;;;;;5.15;1.00;;;;;;;;;;10122591;29;20056;-85
2023/05/16 08:56:38;;;;;;;1.77;0.90;;;;;;;;;;10122628;29;20473;-85
2023/05/16 09:01:42;;;;;;;3.70;1.10;;;;;;;;;;10121484;29;20052;-85
2023/05/16 09:06:47;;;;;;;4.35;1.05;;;;;;;;;;10105400;29;20077;-84
2023/05/16 09:11:51;;;;;;;5.00;1.45;;;;;;;;;;10121164;29;20065;-84
2023/05/16 09:17:04;;;;;;;2.55;0.90;;;;;;;;;;10104609;29;20056;-85
2023/05/16 09:22:10;;;;;;;2.60;0.70;;;;;;;;;;10120682;29;20508;-84
2023/05/16 09:27:14;;;;;;;3.07;0.70;;;;;;;;;;10120606;29;20049;-85
2023/05/16 09:32:18;;;;;;;5.57;0.88;;;;;;;;;;10103490;29;20108;-85
2023/05/16 09:37:54;;;;;;;2.60;0.90;;;;;;;;;;10121399;29;20432;-86
2023/05/16 09:43:07;;;;;;;;;;;;;;;;;;10103988;29;20452;-84
2023/05/16 09:48:12;;;;;;;2.00;0.60;;;;;;;;;;10103497;29;19923;-85
2023/05/16 09:53:17;;;;;;;4.65;1.10;;;;;;;;;;10103437;29;20055;-84
2023/05/16 09:58:21;;;;;;;2.95;0.82;;;;;;;;;;10104084;29;20051;-85
2023/05/16 10:03:27;;;;;;;5.63;1.17;;;;;;;;;;10101291;29;20052;-84
2023/05/16 10:08:35;;;;;;;2.97;0.70;;;;;;;;;;10102207;29;20048;-84
2023/05/16 10:13:40;;;;;;;3.47;0.98;;;;;;;;;;10105224;29;20040;-86
2023/05/16 10:18:44;;;;;;;2.53;0.65;;;;;;;;;;10109742;29;20056;-90
2023/05/16 10:23:51;;;;;;;3.35;0.60;;;;;;;;;;10109309;29;20091;-87
2023/05/16 10:28:56;;;;;;;3.28;0.57;;;;;;;;;;10108150;29;20051;-86
2023/05/16 10:34:00;;;;;;;3.77;1.17;;;;;;;;;;10107925;29;20120;-93
2023/05/16 10:39:07;;;;;;;2.00;0.80;;;;;;;;;;10100564;29;20057;-86
2023/05/16 10:44:15;;;;;;;4.43;1.05;;;;;;;;;;10107875;29;20052;-87
2023/05/16 10:49:27;;;;;;;1.67;0.60;;;;;;;;;;10124139;29;20044;-92
2023/05/16 10:54:38;;;;;;;3.53;0.90;;;;;;;;;;10098396;29;20136;-86
2023/05/16 10:59:46;;;;;;;1.23;0.35;;;;;;;;;;10126992;29;20106;-86
2023/05/16 11:04:50;;;;;;;3.00;0.63;;;;;;;;;;10193824;23;20737;-83
2023/05/16 11:10:06;;;;;;;1.48;0.47;;;;;;;;;;10099629;29;20045;-83
2023/05/16 11:15:21;;;;;;;0.68;0.30;;;;;;;;;;10082755;29;20045;-82
2023/05/16 11:20:31;;;;;;;3.15;0.80;;;;;;;;;;10081608;29;20140;-83
2023/05/16 11:25:40;;;;;;;3.08;0.73;;;;;;;;;;10080062;29;20137;-83
2023/05/16 11:30:44;;;;;;;1.73;0.68;;;;;;;;;;10061846;29;20137;-83
2023/05/16 11:36:04;;;;;;;0.90;0.40;;;;;;;;;;10055028;29;20059;-82
2023/05/16 11:41:19;;;;;;;2.42;0.57;;;;;;;;;;10079357;29;20888;-83
2023/05/16 11:46:23;;;;;;;2.20;0.85;;;;;;;;;;10079568;29;20045;-83
2023/05/16 11:51:26;;;;;;;1.60;0.45;;;;;;;;;;10080157;29;20105;-83
2023/05/16 11:56:31;;;;;;;3.03;0.65;;;;;;;;;;10064341;29;20270;-83
2023/05/16 12:01:36;;;;;;;1.83;0.68;;;;;;;;;;10080643;29;20575;-82
2023/05/16 12:06:39;;;;;;;4.97;1.40;;;;;;;;;;10062335;29;20132;-83
2023/05/16 12:11:45;;;;;;;1.95;0.60;;;;;;;;;;10077518;29;20045;-83
2023/05/16 12:16:49;;;;;;;1.70;0.60;;;;;;;;;;10079547;29;20045;-83
2023/05/16 12:21:55;;;;;;;2.17;0.38;;;;;;;;;;10076875;29;20088;-83
2023/05/16 12:27:00;;;;;;;0.80;0.40;;;;;;;;;;10061113;29;20041;-82
2023/05/16 12:32:03;;;;;;;2.10;0.60;;;;;;;;;;10052302;29;20045;-83
2023/05/16 12:37:07;;;;;;;1.50;0.40;;;;;;;;;;10079053;29;20048;-83
2023/05/16 12:42:12;;;;;;;1.13;0.40;;;;;;;;;;10067826;29;20079;-83
2023/05/16 12:47:16;;;;;;;1.20;0.40;;;;;;;;;;10077866;29;20068;-83
2023/05/16 12:52:22;;;;;;;3.03;0.38;;;;;;;;;;10074340;29;20045;-83
2023/05/16 12:57:27;;;;;;;1.45;0.50;;;;;;;;;;10061448;29;20044;-82
2023/05/16 13:02:33;;;;;;;0.75;0.40;;;;;;;;;;10079811;29;20457;-85
2023/05/16 13:07:38;;;;;;;1.92;0.50;;;;;;;;;;10081740;29;20393;-84
2023/05/16 13:12:43;;;;;;;1.93;0.50;;;;;;;;;;10066005;29;20061;-85
2023/05/16 13:17:47;;;;;;;2.28;0.68;;;;;;;;;;10083392;29;20524;-84
2023/05/16 13:22:50;;;;;;;2.88;0.75;;;;;;;;;;10065545;29;20048;-84
2023/05/16 13:27:55;;;;;;;1.55;0.40;;;;;;;;;;10066952;29;20053;-84
2023/05/16 13:32:58;;;;;;;1.35;0.50;;;;;;;;;;10066713;29;20130;-84
2023/05/16 13:38:02;;;;;;;1.55;0.57;;;;;;;;;;10084390;29;20466;-84
2023/05/16 13:43:07;;;;;;;2.35;0.40;;;;;;;;;;10082072;29;20072;-85
2023/05/16 13:48:10;;;;;;;2.13;0.50;;;;;;;;;;10075348;29;20279;-84
2023/05/16 13:53:14;;;;;;;1.02;0.43;;;;;;;;;;10076946;29;20060;-83
2023/05/16 13:58:19;;;;;;;1.60;0.60;;;;;;;;;;10089331;29;20045;-82
2023/05/16 14:03:23;;;;;;;1.98;0.40;;;;;;;;;;10063261;29;20116;-83
2023/05/16 14:08:26;;;;;;;1.05;0.35;;;;;;;;;;10082785;29;20045;-83
2023/05/16 14:13:31;;;;;;;1.35;0.40;;;;;;;;;;10081835;29;20089;-83
2023/05/16 14:18:34;;;;;;;1.00;0.32;;;;;;;;;;10082155;29;20076;-83
2023/05/16 14:23:38;;;;;;;1.58;0.35;;;;;;;;;;10064191;29;20068;-83
2023/05/16 14:28:43;;;;;;;2.65;0.75;;;;;;;;;;10079905;29;20072;-83
2023/05/16 14:33:46;;;;;;;2.67;0.88;;;;;;;;;;10082964;29;20121;-83
2023/05/16 14:38:50;;;;;;;1.00;0.68;;;;;;;;;;10063981;29;20140;-84
2023/05/16 14:43:55;;;;;;;0.60;0.20;;;;;;;;;;10080175;29;20616;-83
2023/05/16 14:48:58;;;;;;;0.28;0.20;;;;;;;;;;10080755;29;20049;-84
2023/05/16 14:54:02;;;;;;;0.70;0.20;;;;;;;;;;10064493;29;20048;-83
2023/05/16 14:59:07;;;;;;;1.98;0.60;;;;;;;;;;10063197;29;20139;-83
2023/05/16 15:04:10;;;;;;;3.13;0.50;;;;;;;;;;10057130;29;20049;-82
2023/05/16 15:09:14;;;;;;;1.48;0.30;;;;;;;;;;10064688;29;20092;-83
2023/05/16 15:14:18;;;;;;;1.98;0.50;;;;;;;;;;10081657;29;20173;-83
2023/05/16 15:19:22;;;;;;;1.05;0.28;;;;;;;;;;10078624;29;20059;-83
2023/05/16 15:24:25;;;;;;;1.10;0.30;;;;;;;;;;10080903;29;20057;-84
2023/05/16 15:29:30;;;;;;;0.50;0.20;;;;;;;;;;10061794;29;20113;-83
2023/05/16 15:34:34;;;;;;;1.00;0.35;;;;;;;;;;10079992;29;20334;-83
2023/05/16 15:39:38;;;;;;;1.48;0.30;;;;;;;;;;10064571;29;20045;-83
2023/05/16 15:44:42;;;;;;;1.00;0.40;;;;;;;;;;10078092;29;20170;-83
2023/05/16 15:49:46;;;;;;;0.98;0.40;;;;;;;;;;10078724;29;20055;-83
2023/05/16 15:54:49;;;;;;;3.80;0.80;;;;;;;;;;10079422;29;20132;-83
2023/05/16 15:59:54;;;;;;;0.30;0.28;;;;;;;;;;10077186;29;20136;-83
2023/05/16 16:04:57;;;;;;;1.65;0.30;;;;;;;;;;10060791;29;20045;-83
2023/05/16 16:10:00;;;;;;;0.32;0.20;;;;;;;;;;10075750;29;20139;-83
2023/05/16 16:15:10;;;;;;;0.77;0.28;;;;;;;;;;10060853;29;20108;-82
2023/05/16 16:20:14;;;;;;;1.23;0.25;;;;;;;;;;10075573;29;20418;-83
2023/05/16 16:25:19;;;;;;;1.15;0.30;;;;;;;;;;10076052;29;20045;-82
2023/05/16 16:30:23;;;;;;;1.17;0.55;;;;;;;;;;10081008;29;20060;-82
2023/05/16 16:35:27;;;;;;;2.47;0.40;;;;;;;;;;10078422;29;20135;-83
2023/05/16 16:40:30;;;;;;;1.05;0.45;;;;;;;;;;10084585;29;20848;-83
2023/05/16 16:45:36;;;;;;;2.92;0.63;;;;;;;;;;10085302;29;20131;-83
2023/05/16 16:50:40;;;;;;;2.50;0.60;;;;;;;;;;10082151;29;20093;-85
2023/05/16 16:55:44;;;;;;;0.68;0.30;;;;;;;;;;10067385;29;20068;-83
2023/05/16 17:00:49;;;;;;;3.53;0.60;;;;;;;;;;10083313;29;20080;-82
2023/05/16 17:05:53;;;;;;;5.22;0.75;;;;;;;;;;10084084;29;20586;-83
2023/05/16 17:10:56;;;;;;;1.23;0.40;;;;;;;;;;10082272;29;20139;-83
2023/05/16 17:16:01;;;;;;;1.40;0.38;;;;;;;;;;10067563;29;20083;-83
2023/05/16 17:21:04;;;;;;;1.88;0.40;;;;;;;;;;10082110;29;20057;-83
2023/05/16 17:26:08;;;;;;;2.00;0.30;;;;;;;;;;10082779;29;20068;-82
2023/05/16 17:31:14;;;;;;;3.10;0.50;;;;;;;;;;10080966;29;20116;-82
2023/05/16 17:36:18;;;;;;;1.58;0.40;;;;;;;;;;10083148;29;20132;-82
2023/05/16 17:41:21;;;;;;;1.77;0.38;;;;;;;;;;10082044;29;20108;-82
2023/05/16 17:46:26;;;;;;;0.47;0.20;;;;;;;;;;10069220;29;20065;-83
2023/05/16 17:51:29;;;;;;;1.90;0.20;;;;;;;;;;10066920;29;20110;-83
2023/05/16 17:56:33;;;;;;;1.00;0.30;;;;;;;;;;10061850;29;20049;-82
2023/05/16 18:01:38;;;;;;;1.20;0.20;;;;;;;;;;10081161;29;20090;-82
2023/05/16 18:06:42;;;;;;;2.13;0.57;;;;;;;;;;10062423;29;20149;-82
2023/05/16 18:11:46;;;;;;;0.95;0.40;;;;;;;;;;10064978;29;20469;-83
2023/05/16 18:16:51;;;;;;;3.15;0.50;;;;;;;;;;10070167;29;20057;-83
2023/05/16 18:21:54;;;;;;;1.08;0.25;;;;;;;;;;10071521;29;20858;-83
2023/05/16 18:27:00;;;;;;;0.95;0.30;;;;;;;;;;10069067;29;20041;-83
2023/05/16 18:32:05;;;;;;;1.20;0.30;;;;;;;;;;10084047;29;20057;-82
2023/05/16 18:37:09;;;;;;;0.45;0.35;;;;;;;;;;10054484;29;20132;-85
2023/05/16 18:42:12;;;;;;;0.93;0.40;;;;;;;;;;10072646;29;20049;-84
2023/05/16 18:47:17;;;;;;;4.38;0.52;;;;;;;;;;10074015;29;20105;-84
2023/05/16 18:52:21;;;;;;;0.40;0.20;;;;;;;;;;10060933;29;20048;-85
2023/05/16 18:57:26;;;;;;;2.47;0.70;;;;;;;;;;10073719;29;20144;-85
2023/05/16 19:02:31;;;;;;;0.38;0.30;;;;;;;;;;10076164;29;20080;-84
2023/05/16 19:07:43;;;;;;;2.15;0.60;;;;;;;;;;10057168;29;20049;-85
2023/05/16 19:12:47;;;;;;;0.95;0.50;;;;;;;;;;10079637;29;20053;-85
2023/05/16 19:17:52;;;;;;;0.45;0.40;;;;;;;;;;10071864;29;20120;-85
2023/05/16 19:22:56;;;;;;;2.03;0.63;;;;;;;;;;10077460;29;20053;-85
2023/05/16 19:27:59;;;;;;;2.45;0.47;;;;;;;;;;10074311;29;20194;-85
2023/05/16 19:33:04;;;;;;;0.70;0.40;;;;;;;;;;10063249;29;20113;-85
2023/05/16 19:38:07;;;;;;;2.72;0.47;;;;;;;;;;10067101;29;20064;-84
2023/05/16 19:43:10;;;;;;;2.40;0.70;;;;;;;;;;10082716;29;20083;-84
2023/05/16 19:48:15;;;;;;;0.65;0.47;;;;;;;;;;10055550;29;20055;-85
2023/05/16 19:53:19;;;;;;;1.23;0.60;;;;;;;;;;10076577;29;20056;-85
2023/05/16 19:58:22;;;;;;;0.90;0.43;;;;;;;;;;10057072;29;20063;-84
2023/05/16 20:03:27;;;;;;;1.63;0.47;;;;;;;;;;10075628;29;20087;-85
2023/05/16 20:08:30;;;;;;;2.90;0.70;;;;;;;;;;10073499;29;20143;-84
2023/05/16 20:13:34;;;;;;;1.45;0.60;;;;;;;;;;10077253;29;20417;-84
2023/05/16 20:18:38;;;;;;;5.20;0.70;;;;;;;;;;10078449;29;20136;-82
2023/05/16 20:23:42;;;;;;;1.80;0.63;;;;;;;;;;10084512;29;20159;-81
2023/05/16 20:28:45;;;;;;;2.20;0.70;;;;;;;;;;10075919;29;20128;-82
2023/05/16 20:33:50;;;;;;;2.33;0.70;;;;;;;;;;10066972;29;20105;-82
2023/05/16 20:38:53;;;;;;;1.50;0.57;;;;;;;;;;10070193;29;20049;-82
2023/05/16 20:43:56;;;;;;;1.35;0.70;;;;;;;;;;10081373;29;20112;-83
2023/05/16 20:49:01;;;;;;;1.08;0.60;;;;;;;;;;10086241;29;20092;-82
2023/05/16 20:54:04;;;;;;;1.42;0.90;;;;;;;;;;10068495;29;20073;-82
2023/05/16 20:59:08;;;;;;;2.67;0.80;;;;;;;;;;10081699;29;20072;-83
2023/05/16 21:04:12;;;;;;;1.30;0.93;;;;;;;;;;10082124;29;20061;-87
2023/05/16 21:09:16;;;;;;;2.33;0.88;;;;;;;;;;10086517;29;20116;-85
2023/05/16 21:14:19;;;;;;;2.88;1.00;;;;;;;;;;10087348;29;20041;-86
2023/05/16 21:19:24;;;;;;;2.33;1.20;;;;;;;;;;10070294;29;20045;-85
2023/05/16 21:24:28;;;;;;;3.50;1.40;;;;;;;;;;10077269;29;20077;-83
2023/05/16 21:29:32;;;;;;;2.17;1.08;;;;;;;;;;10101883;29;20056;-84
2023/05/16 21:34:37;;;;;;;1.20;0.80;;;;;;;;;;10094535;29;20045;-84
2023/05/16 21:39:40;;;;;;;1.42;0.93;;;;;;;;;;10077960;29;20053;-83
2023/05/16 21:44:43;;;;;;;3.33;0.90;;;;;;;;;;10088918;29;20093;-82
2023/05/16 21:49:48;;;;;;;2.45;1.00;;;;;;;;;;10071204;29;20105;-82
2023/05/16 21:54:52;;;;;;;3.35;1.02;;;;;;;;;;10092446;29;20651;-82
2023/05/16 21:59:55;;;;;;;1.13;0.70;;;;;;;;;;10091121;29;20041;-83
2023/05/16 22:05:00;;;;;;;2.03;0.90;;;;;;;;;;10086674;29;20488;-82
2023/05/16 22:10:04;;;;;;;1.38;0.73;;;;;;;;;;10068913;29;20069;-82
2023/05/16 22:15:08;;;;;;;2.65;1.05;;;;;;;;;;10086190;29;20581;-83
2023/05/16 22:20:12;;;;;;;2.45;1.48;;;;;;;;;;10090224;29;20140;-82
2023/05/16 22:25:16;;;;;;;4.72;2.35;;;;;;;;;;10085233;29;20176;-82
2023/05/16 22:30:19;;;;;;;5.03;2.30;;;;;;;;;;10069750;29;20068;-82
2023/05/16 22:35:26;;;;;;;4.75;2.42;;;;;;;;;;10086607;29;20069;-83
2023/05/16 22:40:30;;;;;;;5.88;2.88;;;;;;;;;;10084761;29;20068;-82
2023/05/16 22:45:33;;;;;;;6.65;1.98;;;;;;;;;;10069635;29;20620;-83
2023/05/16 22:50:38;;;;;;;4.72;2.08;;;;;;;;;;10085609;29;20088;-83
2023/05/16 22:55:41;;;;;;;4.35;1.73;;;;;;;;;;10070096;29;20319;-82
2023/05/16 23:00:44;;;;;;;4.05;1.65;;;;;;;;;;10084345;29;20049;-82
2023/05/16 23:12:12;;;;;;;;;;;;;;;;;;;;;
2023/05/16 23:18:01;;;;;;;2.07;1.13;;;;;;;;;;10084125;29;20049;-81
2023/05/16 23:23:44;;;;;;;2.15;0.93;;;;;;;;;;10091936;29;20338;-81
2023/05/16 23:42:27;;;;;;;;;;;;;;;;;;;;;
2023/05/16 23:47:53;;;;;;;2.33;1.30;;;;;;;;;;10065629;29;20045;-82
2023/05/16 23:53:13;;;;;;;1.83;1.05;;;;;;;;;;10090745;29;20041;-80
2023/05/16 23:59:22;;;;;;;;;;;;;;;;;;;;;
